createdAt,value
2022-11-25T00:00:03.393Z,9.668002
2022-11-25T00:01:03.436Z,9.668004
2022-11-25T00:02:03.448Z,9.668020
2022-11-25T00:03:03.470Z,9.668028
2022-11-25T00:04:03.367Z,9.668027
2022-11-25T00:05:03.432Z,9.667985
2022-11-25T00:06:03.348Z,9.668038
2022-11-25T00:07:03.334Z,9.667993
2022-11-25T00:08:03.369Z,9.668012
2022-11-25T00:09:03.379Z,9.667951
2022-11-25T00:10:03.325Z,9.667954
2022-11-25T00:11:03.297Z,9.667969
2022-11-25T00:12:03.329Z,9.667962
2022-11-25T00:13:03.304Z,9.667981
2022-11-25T00:14:03.450Z,9.667923
2022-11-25T00:15:03.276Z,9.667948
2022-11-25T00:16:04.125Z,9.667968
2022-11-25T00:17:03.347Z,9.667994
2022-11-25T00:18:03.271Z,9.668045
2022-11-25T00:19:04.263Z,9.668001
2022-11-25T00:20:03.196Z,9.668016
2022-11-25T00:21:03.188Z,9.667945
2022-11-25T00:22:03.291Z,9.667942
2022-11-25T00:23:35.058Z,9.667988
2022-11-25T00:24:03.260Z,9.667970
2022-11-25T00:25:03.203Z,9.668023
2022-11-25T00:26:03.165Z,9.668022
2022-11-25T00:27:03.127Z,9.667979
2022-11-25T00:28:03.147Z,9.668013
2022-11-25T00:29:03.129Z,9.668001
2022-11-25T00:30:03.097Z,9.668030
2022-11-25T00:31:03.097Z,9.668013
2022-11-25T00:32:03.201Z,9.668051
2022-11-25T00:33:03.096Z,9.668091
2022-11-25T00:34:03.107Z,9.668009
2022-11-25T00:35:03.055Z,9.667969
2022-11-25T00:36:03.166Z,9.667994
2022-11-25T00:37:03.081Z,9.668041
2022-11-25T00:38:03.034Z,9.667989
2022-11-25T00:39:03.013Z,9.667961
2022-11-25T00:40:03.036Z,9.668010
2022-11-25T00:41:03.048Z,9.668017
2022-11-25T00:42:03.069Z,9.667985
2022-11-25T00:43:03.021Z,9.668036
2022-11-25T00:44:02.996Z,9.668000
2022-11-25T00:45:03.024Z,9.668016
2022-11-25T00:46:03.085Z,9.668072
2022-11-25T00:47:02.984Z,9.668003
2022-11-25T00:48:02.955Z,9.668031
2022-11-25T00:49:02.941Z,9.668011
2022-11-25T00:50:03.084Z,9.667968
2022-11-25T00:51:02.956Z,9.667952
2022-11-25T00:52:02.995Z,9.667985
2022-11-25T00:53:02.962Z,9.667998
2022-11-25T00:54:02.918Z,9.667989
2022-11-25T00:55:02.912Z,9.668008
2022-11-25T00:56:02.913Z,9.668005
2022-11-25T00:57:02.890Z,9.668036
2022-11-25T00:58:02.895Z,9.668040
2022-11-25T00:59:02.894Z,9.668026
2022-11-25T01:00:02.897Z,9.668046
2022-11-25T01:01:02.962Z,9.668048
2022-11-25T01:02:02.951Z,9.668040
2022-11-25T01:03:34.763Z,9.667989
2022-11-25T01:04:02.857Z,9.668033
2022-11-25T01:05:03.893Z,9.668053
2022-11-25T01:06:02.816Z,9.667997
2022-11-25T01:07:02.795Z,9.667958
2022-11-25T01:08:02.791Z,9.668009
2022-11-25T01:09:02.910Z,9.668036
2022-11-25T01:10:02.809Z,9.668052
2022-11-25T01:11:02.817Z,9.668056
2022-11-25T01:12:02.777Z,9.668077
2022-11-25T01:13:02.759Z,9.668037
2022-11-25T01:14:02.766Z,9.668027
2022-11-25T01:15:02.763Z,9.668052
2022-11-25T01:16:02.814Z,9.668052
2022-11-25T01:17:02.737Z,9.668013
2022-11-25T01:18:02.746Z,9.668009
2022-11-25T01:19:02.792Z,9.668046
2022-11-25T01:20:02.728Z,9.668056
2022-11-25T01:21:02.727Z,9.668038
2022-11-25T01:22:02.723Z,9.668018
2022-11-25T01:23:02.698Z,9.668007
2022-11-25T01:24:02.772Z,9.668014
2022-11-25T01:25:02.699Z,9.668014
2022-11-25T01:26:02.651Z,9.668068
2022-11-25T01:27:02.668Z,9.668078
2022-11-25T01:28:02.669Z,9.668056
2022-11-25T01:29:02.640Z,9.668059
2022-11-25T01:30:02.634Z,9.668052
2022-11-25T01:31:02.611Z,9.668118
2022-11-25T01:32:02.720Z,9.668056
2022-11-25T01:33:02.602Z,9.668037
2022-11-25T01:34:02.613Z,9.668012
2022-11-25T01:35:02.592Z,9.668027
2022-11-25T01:36:02.579Z,9.668034
2022-11-25T01:37:02.589Z,9.668069
2022-11-25T01:38:02.585Z,9.668072
2022-11-25T01:39:02.603Z,9.668114
2022-11-25T01:40:02.563Z,9.668076
2022-11-25T01:41:02.554Z,9.668035
2022-11-25T01:42:02.585Z,9.668041
2022-11-25T01:43:02.560Z,9.668056
2022-11-25T01:44:02.526Z,9.668028
2022-11-25T01:45:02.546Z,9.668103
2022-11-25T01:46:02.560Z,9.668080
2022-11-25T01:47:02.496Z,9.668001
2022-11-25T01:48:02.508Z,9.668067
2022-11-25T01:49:02.495Z,9.668057
2022-11-25T01:50:02.579Z,9.668066
2022-11-25T01:51:02.465Z,9.668063
2022-11-25T01:52:02.468Z,9.668048
2022-11-25T01:53:02.473Z,9.668036
2022-11-25T01:54:02.440Z,9.668084
2022-11-25T01:55:02.435Z,9.667986
2022-11-25T01:56:02.451Z,9.668090
2022-11-25T01:57:02.501Z,9.668015
2022-11-25T01:58:02.429Z,9.668027
2022-11-25T01:59:02.458Z,9.668013
2022-11-25T02:00:02.427Z,9.668033
2022-11-25T02:01:02.418Z,9.668052
2022-11-25T02:02:02.439Z,9.668098
2022-11-25T02:03:02.386Z,9.668060
2022-11-25T02:04:02.359Z,9.668031
2022-11-25T02:05:02.384Z,9.667990
2022-11-25T02:06:02.359Z,9.668055
2022-11-25T02:07:02.330Z,9.668018
2022-11-25T02:08:02.331Z,9.667992
2022-11-25T02:09:02.360Z,9.668033
2022-11-25T02:10:02.367Z,9.667992
2022-11-25T02:11:02.337Z,9.668005
2022-11-25T02:12:02.323Z,9.668013
2022-11-25T02:13:02.282Z,9.667923
2022-11-25T02:14:03.212Z,9.667918
2022-11-25T02:15:02.270Z,9.668007
2022-11-25T02:16:02.345Z,9.667979
2022-11-25T02:17:02.364Z,9.667957
2022-11-25T02:18:02.257Z,9.667986
2022-11-25T02:19:02.280Z,9.667976
2022-11-25T02:20:02.259Z,9.668013
2022-11-25T02:21:02.262Z,9.667962
2022-11-25T02:22:02.231Z,9.667935
2022-11-25T02:23:02.239Z,9.668037
2022-11-25T02:24:02.212Z,9.668005
2022-11-25T02:25:02.199Z,9.668036
2022-11-25T02:26:02.188Z,9.668035
2022-11-25T02:27:02.214Z,9.668095
2022-11-25T02:28:02.204Z,9.668105
2022-11-25T02:29:02.168Z,9.668090
2022-11-25T02:30:02.184Z,9.668078
2022-11-25T02:31:02.183Z,9.668146
2022-11-25T02:32:02.216Z,9.668108
2022-11-25T02:33:02.139Z,9.668089
2022-11-25T02:34:02.145Z,9.668078
2022-11-25T02:35:02.116Z,9.668015
2022-11-25T02:36:02.166Z,9.668049
2022-11-25T02:37:02.111Z,9.668012
2022-11-25T02:38:34.044Z,9.668018
2022-11-25T02:39:02.105Z,9.668098
2022-11-25T02:40:02.127Z,9.668056
2022-11-25T02:41:02.070Z,9.668079
2022-11-25T02:42:02.084Z,9.668072
2022-11-25T02:43:02.066Z,9.668083
2022-11-25T02:44:02.094Z,9.668081
2022-11-25T02:45:02.076Z,9.668054
2022-11-25T02:46:02.154Z,9.668125
2022-11-25T02:47:02.060Z,9.668068
2022-11-25T02:48:02.021Z,9.668101
2022-11-25T02:49:10.226Z,9.668117
2022-11-25T02:50:04.003Z,9.668096
2022-11-25T02:51:02.023Z,9.668078
2022-11-25T02:52:02.022Z,9.668022
2022-11-25T02:53:01.994Z,9.668028
2022-11-25T02:54:01.989Z,9.668095
2022-11-25T02:55:02.003Z,9.668093
2022-11-25T02:56:01.984Z,9.668100
2022-11-25T02:57:01.939Z,9.668117
2022-11-25T02:58:01.935Z,9.668013
2022-11-25T02:59:01.955Z,9.668045
2022-11-25T03:00:01.964Z,9.668015
2022-11-25T03:01:01.972Z,9.668086
2022-11-25T03:02:01.947Z,9.668039
2022-11-25T03:03:01.914Z,9.668042
2022-11-25T03:04:01.911Z,9.668048
2022-11-25T03:05:01.942Z,9.668019
2022-11-25T03:06:01.875Z,9.668012
2022-11-25T03:07:01.914Z,9.668015
2022-11-25T03:08:01.865Z,9.668020
2022-11-25T03:09:01.885Z,9.668016
2022-11-25T03:10:01.878Z,9.668005
2022-11-25T03:11:01.839Z,9.668015
2022-11-25T03:12:01.829Z,9.668021
2022-11-25T03:13:01.831Z,9.668021
2022-11-25T03:14:01.843Z,9.668002
2022-11-25T03:15:01.805Z,9.668034
2022-11-25T03:16:01.821Z,9.668056
2022-11-25T03:17:01.836Z,9.668050
2022-11-25T03:18:01.776Z,9.668028
2022-11-25T03:19:01.765Z,9.668070
2022-11-25T03:20:01.786Z,9.667996
2022-11-25T03:21:01.763Z,9.668040
2022-11-25T03:22:01.767Z,9.668056
2022-11-25T03:23:01.818Z,9.668037
2022-11-25T03:24:01.738Z,9.668002
2022-11-25T03:25:01.757Z,9.668027
2022-11-25T03:26:01.711Z,9.668011
2022-11-25T03:27:01.731Z,9.668045
2022-11-25T03:28:01.709Z,9.668022
2022-11-25T03:29:01.711Z,9.668027
2022-11-25T03:30:01.777Z,9.668021
2022-11-25T03:31:01.678Z,9.667996
2022-11-25T03:32:04.275Z,9.668015
2022-11-25T03:33:03.674Z,9.668002
2022-11-25T03:34:01.677Z,9.668004
2022-11-25T03:35:01.675Z,9.668017
2022-11-25T03:36:01.639Z,9.668014
2022-11-25T03:37:01.686Z,9.668018
2022-11-25T03:38:01.639Z,9.668034
2022-11-25T03:39:01.651Z,9.668029
2022-11-25T03:40:01.619Z,9.668014
2022-11-25T03:41:01.615Z,9.668021
2022-11-25T03:42:01.618Z,9.667957
2022-11-25T03:43:01.636Z,9.667975
2022-11-25T03:44:01.583Z,9.667923
2022-11-25T03:45:01.586Z,9.667896
2022-11-25T03:46:01.737Z,9.667943
2022-11-25T03:47:01.578Z,9.667866
2022-11-25T04:05:11.908Z,9.667904
2022-11-25T04:06:43.766Z,9.667891
2022-11-25T04:07:11.891Z,9.667953
2022-11-25T04:08:44.817Z,9.667977
2022-11-25T04:09:11.844Z,9.668046
2022-11-25T04:10:11.831Z,9.667980
2022-11-25T04:11:11.824Z,9.667933
2022-11-25T04:12:11.814Z,9.667931
2022-11-25T04:13:11.847Z,9.667907
2022-11-25T04:14:11.813Z,9.667929
2022-11-25T04:15:11.801Z,9.667952
2022-11-25T04:16:11.809Z,9.667969
2022-11-25T04:17:11.876Z,9.667959
2022-11-25T04:18:11.804Z,9.667957
2022-11-25T04:19:11.800Z,9.667934
2022-11-25T04:20:11.772Z,9.667954
2022-11-25T04:21:11.756Z,9.667872
2022-11-25T04:22:11.760Z,9.667928
2022-11-25T04:23:11.746Z,9.667941
2022-11-25T04:24:11.757Z,9.667887
2022-11-25T04:25:11.746Z,9.667952
2022-11-25T04:26:11.723Z,9.667958
2022-11-25T04:27:11.698Z,9.667961
2022-11-25T04:28:12.398Z,9.667965
2022-11-25T04:29:11.691Z,9.667980
2022-11-25T04:30:11.695Z,9.668018
2022-11-25T04:31:11.782Z,9.668002
2022-11-25T04:32:11.655Z,9.668031
2022-11-25T04:33:11.669Z,9.668005
2022-11-25T04:34:11.644Z,9.667915
2022-11-25T04:35:11.632Z,9.667974
2022-11-25T04:36:11.651Z,9.667938
2022-11-25T04:37:11.626Z,9.667988
2022-11-25T04:38:11.721Z,9.668000
2022-11-25T04:39:11.658Z,9.667995
2022-11-25T04:40:11.603Z,9.667982
2022-11-25T04:41:11.636Z,9.667994
2022-11-25T04:42:11.619Z,9.668027
2022-11-25T04:43:11.595Z,9.668019
2022-11-25T04:44:11.601Z,9.668020
2022-11-25T04:45:22.964Z,9.668016
2022-11-25T04:46:14.592Z,9.667979
2022-11-25T04:47:12.646Z,9.667983
2022-11-25T04:48:11.695Z,9.667937
2022-11-25T04:49:11.542Z,9.668019
2022-11-25T04:50:11.551Z,9.668089
2022-11-25T04:51:11.557Z,9.668054
2022-11-25T04:52:11.514Z,9.668048
2022-11-25T04:53:11.509Z,9.668109
2022-11-25T04:54:17.183Z,9.667988
2022-11-25T04:55:13.510Z,9.667995
2022-11-25T04:56:11.518Z,9.668060
2022-11-25T04:57:11.470Z,9.668005
2022-11-25T04:58:11.659Z,9.668009
2022-11-25T04:59:11.463Z,9.668001
2022-11-25T05:00:11.438Z,9.668013
2022-11-25T05:01:11.527Z,9.667971
2022-11-25T05:02:11.546Z,9.668018
2022-11-25T05:03:11.424Z,9.668075
2022-11-25T05:04:11.415Z,9.668038
2022-11-25T05:05:11.437Z,9.667995
2022-11-25T05:06:11.415Z,9.668073
2022-11-25T05:07:11.432Z,9.668015
2022-11-25T05:08:11.526Z,9.667997
2022-11-25T05:09:11.375Z,9.667995
2022-11-25T05:10:11.414Z,9.667957
2022-11-25T05:11:11.362Z,9.667971
2022-11-25T05:12:11.346Z,9.667999
2022-11-25T05:13:11.414Z,9.668002
2022-11-25T05:14:11.369Z,9.667958
2022-11-25T05:15:11.325Z,9.667956
2022-11-25T05:16:11.428Z,9.668080
2022-11-25T05:17:11.342Z,9.667988
2022-11-25T05:18:11.600Z,9.668019
2022-11-25T05:19:11.381Z,9.667962
2022-11-25T05:20:11.304Z,9.667948
2022-11-25T05:21:11.287Z,9.668025
2022-11-25T05:22:11.301Z,9.668033
2022-11-25T05:23:11.291Z,9.668038
2022-11-25T05:24:11.280Z,9.668024
2022-11-25T05:25:11.365Z,9.667955
2022-11-25T05:26:11.256Z,9.668003
2022-11-25T05:27:11.279Z,9.667976
2022-11-25T05:28:11.239Z,9.668004
2022-11-25T05:29:11.216Z,9.667973
2022-11-25T05:30:11.215Z,9.667985
2022-11-25T05:31:11.295Z,9.667985
2022-11-25T05:32:11.262Z,9.667938
2022-11-25T05:33:11.216Z,9.668000
2022-11-25T05:34:11.204Z,9.667990
2022-11-25T05:35:11.187Z,9.668004
2022-11-25T05:36:11.208Z,9.668036
2022-11-25T05:37:11.156Z,9.668017
2022-11-25T05:38:11.178Z,9.668039
2022-11-25T05:39:11.169Z,9.668003
2022-11-25T05:40:11.141Z,9.668043
2022-11-25T05:41:11.197Z,9.668074
2022-11-25T05:42:11.131Z,9.668058
2022-11-25T05:43:11.121Z,9.668015
2022-11-25T05:44:11.123Z,9.668050
2022-11-25T05:45:11.162Z,9.667982
2022-11-25T05:46:11.149Z,9.668019
2022-11-25T05:47:11.111Z,9.668003
2022-11-25T05:48:11.083Z,9.668061
2022-11-25T05:49:11.084Z,9.667978
2022-11-25T05:50:11.113Z,9.667990
2022-11-25T05:51:11.990Z,9.667958
2022-11-25T05:52:43.013Z,9.667960
2022-11-25T05:53:42.944Z,9.668018
2022-11-25T05:54:43.059Z,9.668038
2022-11-25T05:55:43.027Z,9.668038
2022-11-25T05:56:43.073Z,9.668076
2022-11-25T05:57:42.977Z,9.668044
2022-11-25T05:58:11.122Z,9.668044
2022-11-25T06:04:52.651Z,9.667764
2022-11-25T06:05:52.595Z,9.667849
2022-11-25T06:06:52.618Z,9.667839
2022-11-25T06:07:52.675Z,9.667853
2022-11-25T06:08:20.664Z,9.667852
2022-11-25T06:09:52.609Z,9.667897
2022-11-25T06:10:20.643Z,9.667928
2022-11-25T06:11:20.713Z,9.667858
2022-11-25T06:12:20.633Z,9.667903
2022-11-25T06:13:20.695Z,9.667785
2022-11-25T06:14:20.614Z,9.667845
2022-11-25T06:15:20.631Z,9.667795
2022-11-25T06:16:20.626Z,9.667803
2022-11-25T06:17:20.611Z,9.667758
2022-11-25T06:18:20.626Z,9.667909
2022-11-25T06:19:20.607Z,9.667903
2022-11-25T06:20:20.566Z,9.667856
2022-11-25T06:21:20.571Z,9.667859
2022-11-25T06:22:20.561Z,9.667917
2022-11-25T06:23:20.557Z,9.667890
2022-11-25T06:24:20.549Z,9.667897
2022-11-25T06:25:20.591Z,9.667955
2022-11-25T06:26:20.516Z,9.667940
2022-11-25T06:27:20.527Z,9.667962
2022-11-25T06:28:20.505Z,9.667952
2022-11-25T06:29:20.527Z,9.667916
2022-11-25T06:30:20.594Z,9.667975
2022-11-25T06:31:20.553Z,9.667928
2022-11-25T06:32:20.493Z,9.667907
2022-11-25T06:33:20.480Z,9.667957
2022-11-25T06:34:20.471Z,9.667935
2022-11-25T06:35:20.478Z,9.668006
2022-11-25T06:36:20.474Z,9.668062
2022-11-25T06:37:20.448Z,9.667965
2022-11-25T06:38:20.434Z,9.667973
2022-11-25T06:39:20.437Z,9.667994
2022-11-25T06:40:20.471Z,9.667990
2022-11-25T06:41:20.476Z,9.667974
2022-11-25T06:42:20.507Z,9.668003
2022-11-25T06:43:20.391Z,9.667994
2022-11-25T06:44:20.446Z,9.667980
2022-11-25T06:45:20.402Z,9.667978
2022-11-25T06:46:24.767Z,9.668032
2022-11-25T06:47:21.420Z,9.667991
2022-11-25T06:48:20.411Z,9.668038
2022-11-25T06:49:20.437Z,9.667958
2022-11-25T06:50:20.409Z,9.667987
2022-11-25T06:51:20.347Z,9.668016
2022-11-25T06:52:20.500Z,9.668009
2022-11-25T06:53:24.076Z,9.668001
2022-11-25T06:54:21.348Z,9.668031
2022-11-25T06:55:20.307Z,9.668032
2022-11-25T06:56:20.339Z,9.667944
2022-11-25T06:57:20.296Z,9.667994
2022-11-25T06:58:35.436Z,9.667994
2022-11-25T06:59:22.278Z,9.667970
2022-11-25T07:00:20.267Z,9.667981
2022-11-25T07:01:20.295Z,9.668046
2022-11-25T07:02:20.320Z,9.667960
2022-11-25T07:03:20.344Z,9.667955
2022-11-25T07:04:20.277Z,9.667988
2022-11-25T07:05:20.917Z,9.668061
2022-11-25T07:06:20.260Z,9.668005
2022-11-25T07:07:20.251Z,9.668015
2022-11-25T07:08:20.217Z,9.668021
2022-11-25T07:09:20.235Z,9.668040
2022-11-25T07:10:20.230Z,9.668031
2022-11-25T07:11:20.208Z,9.668022
2022-11-25T07:12:20.197Z,9.668022
2022-11-25T07:13:20.191Z,9.668046
2022-11-25T07:14:20.167Z,9.668079
2022-11-25T07:15:20.206Z,9.668066
2022-11-25T07:16:20.236Z,9.668053
2022-11-25T07:17:20.197Z,9.668040
2022-11-25T07:18:20.212Z,9.667968
2022-11-25T07:19:20.136Z,9.668015
2022-11-25T07:20:20.143Z,9.668056
2022-11-25T07:21:20.124Z,9.668065
2022-11-25T07:22:20.115Z,9.668026
2022-11-25T07:23:20.099Z,9.668026
2022-11-25T07:24:20.083Z,9.668026
2022-11-25T07:25:20.223Z,9.668034
2022-11-25T07:26:20.091Z,9.668045
2022-11-25T07:27:20.118Z,9.668075
2022-11-25T07:28:20.065Z,9.668063
2022-11-25T07:31:23.708Z,9.668000
2022-11-25T07:32:22.569Z,9.668018
2022-11-25T07:33:20.187Z,9.668010
2022-11-25T07:34:20.181Z,9.667985
2022-11-25T07:35:21.010Z,9.668023
2022-11-25T07:36:20.061Z,9.668063
2022-11-25T07:37:20.001Z,9.667999
2022-11-25T07:38:19.996Z,9.668048
2022-11-25T07:39:20.028Z,9.668012
2022-11-25T07:40:19.971Z,9.667963
2022-11-25T07:41:19.962Z,9.667994
2022-11-25T07:42:19.966Z,9.668028
2022-11-25T07:43:19.944Z,9.668023
2022-11-25T07:44:19.972Z,9.667999
2022-11-25T07:45:19.948Z,9.667982
2022-11-25T07:46:26.276Z,9.667961
2022-11-25T07:47:21.931Z,9.668021
2022-11-25T07:48:20.922Z,9.668035
2022-11-25T07:49:19.891Z,9.668044
2022-11-25T07:50:19.887Z,9.668018
2022-11-25T07:51:19.900Z,9.668037
2022-11-25T07:52:19.905Z,9.667992
2022-11-25T07:53:19.915Z,9.667994
2022-11-25T07:54:19.866Z,9.667997
2022-11-25T07:55:19.868Z,9.668043
2022-11-25T07:56:19.851Z,9.668055
2022-11-25T07:57:19.839Z,9.668064
2022-11-25T07:58:19.852Z,9.667996
2022-11-25T07:59:19.856Z,9.667948
2022-11-25T08:00:19.838Z,9.667974
2022-11-25T08:01:19.938Z,9.667976
2022-11-25T08:02:19.856Z,9.668005
2022-11-25T08:03:19.979Z,9.667977
2022-11-25T08:04:21.023Z,9.667966
2022-11-25T08:05:20.791Z,9.668128
2022-11-25T08:06:19.822Z,9.668157
2022-11-25T08:07:19.819Z,9.668105
2022-11-25T08:08:19.772Z,9.668111
2022-11-25T08:09:19.758Z,9.668041
2022-11-25T08:10:19.755Z,9.667970
2022-11-25T08:11:19.777Z,9.667998
2022-11-25T08:12:19.767Z,9.667992
2022-11-25T08:13:19.824Z,9.668015
2022-11-25T08:14:19.731Z,9.668040
2022-11-25T08:15:19.727Z,9.668009
2022-11-25T08:16:19.761Z,9.668010
2022-11-25T08:17:19.719Z,9.668048
2022-11-25T08:18:19.697Z,9.668019
2022-11-25T08:19:19.709Z,9.668145
2022-11-25T08:20:19.688Z,9.668095
2022-11-25T08:21:19.677Z,9.667961
2022-11-25T08:22:19.701Z,9.668024
2022-11-25T08:23:19.661Z,9.668011
2022-11-25T08:24:19.696Z,9.667985
2022-11-25T08:25:19.636Z,9.668028
2022-11-25T08:26:19.650Z,9.667987
2022-11-25T08:27:19.648Z,9.667997
2022-11-25T08:28:19.615Z,9.668041
2022-11-25T08:29:19.632Z,9.667994
2022-11-25T08:30:19.622Z,9.668008
2022-11-25T08:31:51.531Z,9.667996
2022-11-25T08:32:19.592Z,9.667952
2022-11-25T08:33:19.578Z,9.668004
2022-11-25T08:34:19.575Z,9.667979
2022-11-25T08:35:20.535Z,9.667972
2022-11-25T08:36:19.577Z,9.668046
2022-11-25T08:37:19.598Z,9.668060
2022-11-25T08:38:20.389Z,9.668080
2022-11-25T08:40:21.632Z,9.668091
2022-11-25T08:41:19.528Z,9.668041
2022-11-25T08:42:19.542Z,9.668078
2022-11-25T08:43:22.789Z,9.668056
2022-11-25T08:44:20.499Z,9.667991
2022-11-25T08:45:19.518Z,9.667978
2022-11-25T08:46:19.530Z,9.667932
2022-11-25T08:47:19.483Z,9.668013
2022-11-25T08:48:19.579Z,9.668023
2022-11-25T08:49:20.026Z,9.668020
2022-11-25T08:50:19.483Z,9.668016
2022-11-25T08:51:20.034Z,9.667949
2022-11-25T08:52:19.506Z,9.667954
2022-11-25T08:53:19.462Z,9.668007
2022-11-25T08:54:19.449Z,9.668026
2022-11-25T08:55:19.451Z,9.667962
2022-11-25T08:56:24.338Z,9.667978
2022-11-25T08:57:21.442Z,9.667911
2022-11-25T08:58:19.451Z,9.667993
2022-11-25T08:59:19.378Z,9.668006
2022-11-25T09:00:19.406Z,9.667937
2022-11-25T09:01:20.440Z,9.667991
2022-11-25T09:02:19.492Z,9.668003
2022-11-25T09:03:19.412Z,9.667973
2022-11-25T09:04:19.388Z,9.667999
2022-11-25T09:05:19.378Z,9.668009
2022-11-25T09:06:19.374Z,9.668071
2022-11-25T09:07:19.381Z,9.668051
2022-11-25T09:08:19.303Z,9.668045
2022-11-25T09:09:19.296Z,9.667981
2022-11-25T09:10:19.291Z,9.667965
2022-11-25T09:11:19.338Z,9.667998
2022-11-25T09:12:19.341Z,9.668012
2022-11-25T09:13:19.365Z,9.668018
2022-11-25T09:14:19.306Z,9.667979
2022-11-25T09:15:19.258Z,9.667905
2022-11-25T09:16:19.423Z,9.667937
2022-11-25T09:17:19.292Z,9.667940
2022-11-25T09:18:19.254Z,9.667978
2022-11-25T09:19:19.269Z,9.667957
2022-11-25T09:20:19.245Z,9.667993
2022-11-25T09:21:19.245Z,9.667995
2022-11-25T09:22:19.223Z,9.667998
2022-11-25T09:23:19.218Z,9.667971
2022-11-25T09:24:19.195Z,9.667978
2022-11-25T09:25:19.233Z,9.668014
2022-11-25T09:26:19.182Z,9.668031
2022-11-25T09:27:19.219Z,9.668054
2022-11-25T09:28:19.182Z,9.668011
2022-11-25T09:29:19.160Z,9.668019
2022-11-25T09:30:19.174Z,9.668020
2022-11-25T09:31:19.206Z,9.667989
2022-11-25T09:32:20.029Z,9.668018
2022-11-25T09:33:19.169Z,9.667963
2022-11-25T09:34:19.184Z,9.668017
2022-11-25T09:35:19.100Z,9.668013
2022-11-25T09:36:19.138Z,9.667951
2022-11-25T09:37:19.122Z,9.667984
2022-11-25T09:38:19.085Z,9.667943
2022-11-25T09:39:19.093Z,9.668028
2022-11-25T09:40:19.071Z,9.667993
2022-11-25T09:41:19.069Z,9.667999
2022-11-25T09:42:19.118Z,9.668007
2022-11-25T09:43:19.043Z,9.668031
2022-11-25T09:44:19.065Z,9.667960
2022-11-25T09:45:19.027Z,9.668016
2022-11-25T09:46:20.087Z,9.668021
2022-11-25T09:47:19.011Z,9.667994
2022-11-25T09:48:19.033Z,9.668005
2022-11-25T09:49:19.034Z,9.668033
2022-11-25T09:50:18.993Z,9.668034
2022-11-25T09:51:19.006Z,9.668029
2022-11-25T09:52:18.981Z,9.668056
2022-11-25T09:53:18.997Z,9.668026
2022-11-25T09:54:18.993Z,9.668080
2022-11-25T09:55:18.977Z,9.667999
2022-11-25T09:56:19.031Z,9.668051
2022-11-25T09:57:18.947Z,9.668031
2022-11-25T09:58:18.944Z,9.668015
2022-11-25T09:59:18.949Z,9.668023
2022-11-25T10:00:18.943Z,9.668040
2022-11-25T10:01:19.608Z,9.668030
2022-11-25T10:02:19.026Z,9.668058
2022-11-25T10:03:19.023Z,9.668046
2022-11-25T10:04:18.884Z,9.668030
2022-11-25T10:05:18.878Z,9.668015
2022-11-25T10:06:18.974Z,9.668009
2022-11-25T10:07:18.907Z,9.668035
2022-11-25T10:08:19.650Z,9.668090
2022-11-25T10:09:18.860Z,9.668097
2022-11-25T10:10:18.963Z,9.668033
2022-11-25T10:11:18.840Z,9.668082
2022-11-25T10:12:18.879Z,9.668140
2022-11-25T10:13:19.779Z,9.668084
2022-11-25T10:14:18.835Z,9.667994
2022-11-25T10:15:18.794Z,9.668041
2022-11-25T10:16:18.839Z,9.668046
2022-11-25T10:17:18.800Z,9.668078
2022-11-25T10:18:18.782Z,9.668063
2022-11-25T10:19:18.768Z,9.668052
2022-11-25T10:20:18.814Z,9.668045
2022-11-25T10:21:18.749Z,9.668042
2022-11-25T10:22:18.769Z,9.668024
2022-11-25T10:23:22.261Z,9.668002
2022-11-25T10:24:19.736Z,9.668018
2022-11-25T10:25:18.711Z,9.668037
2022-11-25T10:26:18.749Z,9.668031
2022-11-25T10:27:18.739Z,9.668018
2022-11-25T10:28:18.696Z,9.668025
2022-11-25T10:29:18.704Z,9.668023
2022-11-25T10:30:18.937Z,9.668011
2022-11-25T10:31:18.777Z,9.668020
2022-11-25T10:32:18.655Z,9.668004
2022-11-25T10:33:18.658Z,9.668044
2022-11-25T10:34:18.654Z,9.668011
2022-11-25T10:35:18.652Z,9.667988
2022-11-25T10:36:18.665Z,9.668026
2022-11-25T10:37:18.619Z,9.668027
2022-11-25T10:38:19.303Z,9.667991
2022-11-25T10:39:19.811Z,9.667990
2022-11-25T10:40:18.676Z,9.667989
2022-11-25T10:41:18.591Z,9.668042
2022-11-25T10:42:18.630Z,9.668019
2022-11-25T10:43:18.594Z,9.668021
2022-11-25T10:44:18.697Z,9.668016
2022-11-25T10:45:18.591Z,9.667989
2022-11-25T10:46:18.640Z,9.668065
2022-11-25T10:47:18.638Z,9.668000
2022-11-25T10:48:18.558Z,9.667945
2022-11-25T10:49:18.579Z,9.667914
2022-11-25T10:50:18.579Z,9.667999
2022-11-25T10:51:18.550Z,9.668009
2022-11-25T10:52:18.531Z,9.668024
2022-11-25T10:53:18.534Z,9.668017
2022-11-25T10:54:22.692Z,9.668028
2022-11-25T10:55:19.562Z,9.668076
2022-11-25T10:56:18.592Z,9.668056
2022-11-25T10:57:19.509Z,9.668118
2022-11-25T10:58:18.507Z,9.668070
2022-11-25T10:59:18.494Z,9.668023
2022-11-25T11:00:18.477Z,9.668048
2022-11-25T11:01:18.535Z,9.668024
2022-11-25T11:02:18.541Z,9.667955
2022-11-25T11:03:18.467Z,9.668106
2022-11-25T11:04:18.446Z,9.668147
2022-11-25T11:05:18.487Z,9.668090
2022-11-25T11:06:18.463Z,9.668071
2022-11-25T11:07:18.501Z,9.668138
2022-11-25T11:08:18.448Z,9.668092
2022-11-25T11:13:06.143Z,9.668179
2022-11-25T11:14:06.747Z,9.668106
2022-11-25T11:15:06.051Z,9.668112
2022-11-25T11:16:06.100Z,9.668102
2022-11-25T11:17:06.056Z,9.668070
2022-11-25T11:18:06.045Z,9.668073
2022-11-25T11:19:06.022Z,9.668139
2022-11-25T11:20:06.031Z,9.668098
2022-11-25T11:21:06.042Z,9.668095
2022-11-25T11:22:05.990Z,9.668100
2022-11-25T11:23:09.127Z,9.668072
2022-11-25T11:24:06.998Z,9.668060
2022-11-25T11:25:05.993Z,9.668042
2022-11-25T11:26:06.065Z,9.668066
2022-11-25T11:27:05.972Z,9.668071
2022-11-25T11:28:06.004Z,9.668093
2022-11-25T11:29:09.820Z,9.668020
2022-11-25T11:30:07.970Z,9.668055
2022-11-25T11:31:06.021Z,9.668067
2022-11-25T11:32:05.952Z,9.668088
2022-11-25T11:33:05.921Z,9.668061
2022-11-25T11:34:05.920Z,9.668092
2022-11-25T11:35:05.949Z,9.668086
2022-11-25T11:36:05.883Z,9.668088
2022-11-25T11:37:05.897Z,9.668078
2022-11-25T11:38:05.882Z,9.668099
2022-11-25T11:39:05.929Z,9.668034
2022-11-25T11:40:05.901Z,9.668017
2022-11-25T11:41:05.850Z,9.668069
2022-11-25T11:42:05.894Z,9.668043
2022-11-25T11:43:05.977Z,9.668024
2022-11-25T11:44:06.729Z,9.668051
2022-11-25T11:45:05.837Z,9.668047
2022-11-25T11:46:05.830Z,9.667932
2022-11-25T11:47:05.881Z,9.667965
2022-11-25T11:48:05.821Z,9.667996
2022-11-25T11:49:05.813Z,9.668015
2022-11-25T11:50:05.854Z,9.667913
2022-11-25T11:51:06.663Z,9.667875
2022-11-25T11:52:05.756Z,9.668010
2022-11-25T11:53:05.763Z,9.668036
2022-11-25T11:54:05.829Z,9.668046
2022-11-25T11:55:05.823Z,9.668009
2022-11-25T11:56:33.520Z,9.668027
2022-11-25T11:57:07.718Z,9.668085
2022-11-25T11:58:05.708Z,9.668041
2022-11-25T11:59:05.725Z,9.668042
2022-11-25T12:00:05.762Z,9.667943
2022-11-25T12:01:05.782Z,9.668056
2022-11-25T12:02:05.798Z,9.668047
2022-11-25T12:03:05.778Z,9.668003
2022-11-25T12:04:05.789Z,9.668036
2022-11-25T12:05:05.744Z,9.668056
2022-11-25T12:06:05.695Z,9.668023
2022-11-25T12:07:05.828Z,9.668021
2022-11-25T12:08:05.655Z,9.668001
2022-11-25T12:09:05.641Z,9.667995
2022-11-25T12:10:05.626Z,9.668006
2022-11-25T12:11:05.662Z,9.668045
2022-11-25T12:12:05.618Z,9.668098
2022-11-25T12:13:05.591Z,9.668033